Time;durP1;ratioP1;P1;durP2;ratioP2;P2;SDS_P1;SDS_P2;PMS_P1;PMS_P2;Temp;Humidity;BMP_temperature;BMP_pressure;BME280_temperature;BME280_humidity;BME280_pressure;Samples;Min_cycle;Max_cycle;Signal;HPM_P1;HPM_P2
2022/12/27 00:00:36;;;;;;;2.80;2.60;;;;;;;9.45;66.97;100273.78;4242310;33;33122;-85
2022/12/27 00:03:04;;;;;;;3.85;2.05;;;;;;;9.33;67.51;100278.56;4253264;33;32971;-85
2022/12/27 00:05:31;;;;;;;2.50;2.40;;;;;;;9.43;67.08;100279.97;4256837;33;34827;-85
2022/12/27 00:07:59;;;;;;;2.45;2.30;;;;;;;9.48;67.15;100281.56;4253823;33;33089;-85
2022/12/27 00:10:27;;;;;;;3.47;3.28;;;;;;;9.55;66.93;100273.47;4264817;33;33266;-85
2022/12/27 00:12:54;;;;;;;2.50;2.30;;;;;;;9.63;66.65;100287.25;4255226;33;32860;-84
2022/12/27 00:15:22;;;;;;;4.68;4.25;;;;;;;9.34;67.62;100273.22;4266022;33;34026;-84
2022/12/27 00:17:49;;;;;;;3.33;2.85;;;;;;;9.47;67.48;100256.12;4252567;33;35022;-84
2022/12/27 00:20:17;;;;;;;11.70;5.30;;;;;;;9.59;67.21;100249.59;4253560;33;32340;-84
2022/12/27 00:22:47;;;;;;;2.87;2.67;;;;;;;9.48;67.08;100247.28;4253829;33;33951;-84
2022/12/27 00:25:15;;;;;;;3.03;1.95;;;;;;;9.32;68.72;100261.88;4266145;33;33624;-83
2022/12/27 00:27:43;;;;;;;3.85;3.55;;;;;;;9.38;68.58;100272.22;4256040;33;32740;-83
2022/12/27 00:30:11;;;;;;;2.92;2.72;;;;;;;9.62;67.77;100272.34;4253455;33;33627;-83
2022/12/27 00:32:39;;;;;;;2.53;2.00;;;;;;;9.64;67.67;100270.53;4253336;33;32948;-83
2022/12/27 00:35:06;;;;;;;4.70;2.70;;;;;;;9.58;67.93;100268.94;4254630;33;33430;-83
2022/12/27 00:37:34;;;;;;;6.90;3.17;;;;;;;9.64;67.63;100273.19;4266474;33;34751;-83
2022/12/27 00:40:02;;;;;;;4.03;3.65;;;;;;;9.52;68.41;100273.56;4252331;33;32142;-84
2022/12/27 00:42:30;;;;;;;2.80;2.17;;;;;;;9.37;68.91;100259.97;4252847;33;32227;-84
2022/12/27 00:44:57;;;;;;;8.20;3.70;;;;;;;9.55;68.66;100255.03;4251524;33;34319;-84
2022/12/27 00:47:25;;;;;;;0.98;0.98;;;;;;;9.52;68.93;100239.28;4253272;33;33084;-84
2022/12/27 00:49:53;;;;;;;3.37;2.75;;;;;;;9.46;69.12;100246.50;4253029;33;31837;-84
2022/12/27 00:52:20;;;;;;;2.95;1.95;;;;;;;9.58;69.05;100234.66;4264027;33;33168;-84
2022/12/27 00:54:48;;;;;;;2.12;1.90;;;;;;;9.56;69.58;100241.78;4241261;33;32732;-84
2022/12/27 00:57:16;;;;;;;1.62;1.55;;;;;;;9.66;69.16;100229.16;4265926;33;34649;-83
2022/12/27 00:59:43;;;;;;;2.12;2.03;;;;;;;9.80;69.19;100233.97;4243088;33;32188;-84
2022/12/27 01:02:11;;;;;;;0.75;0.75;;;;;;;10.10;69.11;100234.69;4246345;33;33663;-83
2022/12/27 01:04:39;;;;;;;1.10;0.60;;;;;;;9.82;70.93;100240.91;4253614;33;33878;-83
2022/12/27 01:07:06;;;;;;;0.68;0.68;;;;;;;10.19;70.87;100229.09;4250590;33;34073;-83
2022/12/27 01:09:34;;;;;;;1.00;0.90;;;;;;;10.10;70.81;100208.31;4255217;33;32988;-84
2022/12/27 01:12:02;;;;;;;2.78;0.47;;;;;;;10.52;69.53;100221.78;4256542;33;32405;-84
2022/12/27 01:14:29;;;;;;;0.65;0.40;;;;;;;10.42;69.90;100215.97;4267500;33;32451;-84
2022/12/27 01:16:57;;;;;;;0.47;0.43;;;;;;;10.27;70.08;100205.97;4256113;33;34784;-84
2022/12/27 01:19:26;;;;;;;0.73;0.73;;;;;;;10.62;68.86;100211.75;4252432;33;33762;-85
2022/12/27 01:21:53;;;;;;;0.00;0.00;;;;;;;10.91;68.01;100216.78;4263220;33;32278;-85
2022/12/27 01:24:21;;;;;;;0.55;0.55;;;;;;;10.90;67.39;100212.41;4257445;33;33724;-85
2022/12/27 01:26:49;;;;;;;3.60;1.05;;;;;;;11.03;67.09;100213.66;4264400;33;33954;-85
2022/12/27 01:29:16;;;;;;;1.00;1.00;;;;;;;11.38;66.00;100198.19;4237826;33;33415;-85
2022/12/27 01:31:44;;;;;;;0.00;0.00;;;;;;;11.36;66.10;100205.31;4252805;33;32852;-84
2022/12/27 01:34:12;;;;;;;0.20;0.20;;;;;;;11.61;64.67;100215.75;4266328;33;33186;-85
2022/12/27 01:36:39;;;;;;;0.22;0.22;;;;;;;11.05;66.43;100229.44;4255891;33;33385;-85
2022/12/27 01:39:09;;;;;;;2.78;0.75;;;;;;;11.60;64.85;100229.06;4254186;33;33638;-83
2022/12/27 01:44:36;;;;;;;0.00;0.00;;;;;;;11.66;64.14;100234.94;4255883;33;34385;-84
2022/12/27 01:47:11;;;;;;;0.80;0.30;;;;;;;11.93;63.30;100243.56;4267099;33;32506;-84
2022/12/27 01:49:42;;;;;;;0.20;0.20;;;;;;;11.94;63.33;100239.97;4266275;33;34330;-85
2022/12/27 01:52:11;;;;;;;1.05;0.32;;;;;;;11.78;63.76;100241.53;4253897;33;33725;-85
2022/12/27 01:54:39;;;;;;;1.75;0.77;;;;;;;12.22;62.32;100246.75;4251443;33;33209;-84
2022/12/27 01:57:06;;;;;;;0.62;0.55;;;;;;;12.12;62.70;100248.06;4254413;33;33504;-84
2022/12/27 01:59:35;;;;;;;1.10;0.60;;;;;;;12.33;61.83;100247.13;4251582;33;34382;-84
2022/12/27 02:02:03;;;;;;;0.10;0.10;;;;;;;12.32;62.20;100249.84;4255529;33;33581;-84
2022/12/27 02:04:32;;;;;;;0.10;0.08;;;;;;;12.27;62.30;100252.69;4255608;33;34080;-85
2022/12/27 02:07:00;;;;;;;0.00;0.00;;;;;;;12.35;61.79;100253.22;4256361;33;33132;-85
2022/12/27 02:09:51;;;;;;;0.65;0.57;;;;;;;12.61;61.04;100262.66;4254346;33;32982;-84
2022/12/27 02:12:20;;;;;;;0.20;0.20;;;;;;;12.69;60.51;100249.06;4254972;33;33038;-85
2022/12/27 02:14:48;;;;;;;0.00;0.00;;;;;;;12.63;60.77;100255.53;4254595;33;32689;-85
2022/12/27 02:17:19;;;;;;;0.57;0.57;;;;;;;12.73;60.54;100255.97;4255127;33;34410;-85
2022/12/27 02:19:58;;;;;;;0.00;0.00;;;;;;;12.91;60.11;100265.69;4251811;33;32749;-85
2022/12/27 02:26:19;;;;;;;0.95;0.77;;;;;;;12.77;60.20;100260.16;4265373;33;32360;-84
2022/12/27 02:29:03;;;;;;;0.17;0.17;;;;;;;12.93;59.76;100261.19;4265222;33;32394;-84
2022/12/27 02:31:55;;;;;;;0.00;0.00;;;;;;;12.92;59.69;100261.28;4266365;33;32136;-84
2022/12/27 02:34:30;;;;;;;0.50;0.50;;;;;;;12.93;59.98;100258.56;4254934;33;32824;-84
2022/12/27 02:37:01;;;;;;;1.00;0.90;;;;;;;13.04;59.75;100245.66;4253377;33;34188;-84
2022/12/27 02:39:34;;;;;;;0.43;0.43;;;;;;;12.93;60.10;100237.34;4264719;33;33886;-83
2022/12/27 02:53:46;;;;;;;0.30;0.30;;;;;;;12.64;60.96;100245.78;4252738;33;33702;-84
2022/12/27 02:59:30;;;;;;;0.25;0.00;;;;;;;12.27;62.82;100248.25;4253706;33;33314;-84
2022/12/27 03:09:12;;;;;;;1.83;1.30;;;;;;;12.37;62.21;100264.59;4223214;33;32345;-84
2022/12/27 03:17:33;;;;;;;0.55;0.55;;;;;;;12.20;62.51;100254.75;4257947;33;33563;-85
2022/12/27 03:25:43;;;;;;;0.68;0.65;;;;;;;12.29;61.97;100261.41;4258022;33;34723;-84
2022/12/27 03:34:31;;;;;;;0.20;0.20;;;;;;;12.21;61.93;100268.84;4257237;33;33960;-84
2022/12/27 03:40:07;;;;;;;0.68;0.50;;;;;;;11.65;62.98;100286.12;4248953;33;33007;-84
2022/12/27 03:49:21;;;;;;;1.27;0.70;;;;;;;11.12;63.92;100298.81;4256682;33;34161;-84
2022/12/27 03:51:55;;;;;;;0.47;0.47;;;;;;;11.15;63.69;100298.66;4254205;33;32188;-84
2022/12/27 03:54:29;;;;;;;0.77;0.77;;;;;;;11.19;63.52;100303.78;4252773;33;32393;-84
2022/12/27 03:57:00;;;;;;;0.37;0.37;;;;;;;11.21;63.28;100301.09;4254318;33;34360;-84
2022/12/27 03:59:27;;;;;;;0.47;0.47;;;;;;;11.16;63.26;100308.34;4253598;33;32734;-84
2022/12/27 04:01:55;;;;;;;0.45;0.45;;;;;;;11.07;63.37;100304.28;4264286;33;33426;-84
2022/12/27 04:04:24;;;;;;;0.43;0.43;;;;;;;10.89;63.88;100313.72;4254197;33;35024;-84
2022/12/27 04:06:51;;;;;;;0.00;0.00;;;;;;;10.84;63.73;100312.19;4249150;33;32666;-84
2022/12/27 04:37:05;;;;;;;0.00;0.00;;;;;;;10.79;62.30;100344.06;4254578;33;33190;-85
2022/12/27 04:39:33;;;;;;;0.62;0.40;;;;;;;10.81;61.86;100349.28;4264630;33;33910;-85
2022/12/27 04:56:05;;;;;;;0.28;0.28;;;;;;;10.62;62.95;100386.03;4257287;33;32597;-84
2022/12/27 04:58:33;;;;;;;0.47;0.47;;;;;;;10.39;64.09;100398.22;4254784;33;33684;-85
2022/12/27 05:03:50;;;;;;;1.80;1.70;;;;;;;10.33;65.00;100401.06;4255224;33;32686;-84
2022/12/27 05:06:18;;;;;;;3.87;0.65;;;;;;;10.36;65.25;100408.91;4256251;33;32226;-84
2022/12/27 05:14:19;;;;;;;1.52;0.90;;;;;;;10.46;65.47;100409.47;4255559;33;34261;-84
2022/12/27 05:16:47;;;;;;;0.55;0.55;;;;;;;10.80;63.88;100411.81;4254341;33;31952;-84
2022/12/27 05:19:15;;;;;;;0.10;0.10;;;;;;;10.61;64.69;100418.62;4252744;33;32798;-84
2022/12/27 05:25:33;;;;;;;2.33;0.50;;;;;;;10.91;63.80;100412.28;4250479;33;34520;-84
2022/12/27 05:27:18;;;;;;;0.40;0.40;;;;;;;11.00;63.17;100409.31;4262895;33;34269;-84
2022/12/27 05:29:46;;;;;;;0.62;0.62;;;;;;;10.97;63.09;100435.00;4251956;33;32848;-84
2022/12/27 05:32:13;;;;;;;0.10;0.10;;;;;;;11.13;62.17;100420.31;4266920;33;34044;-84
2022/12/27 05:34:41;;;;;;;0.28;0.28;;;;;;;11.18;62.12;100425.44;4255068;33;34010;-83
2022/12/27 05:37:09;;;;;;;0.62;0.62;;;;;;;10.98;62.49;100437.59;4249419;33;33174;-83
2022/12/27 05:39:37;;;;;;;0.10;0.10;;;;;;;11.02;62.56;100454.22;4252151;33;32583;-83
2022/12/27 05:42:04;;;;;;;2.12;0.80;;;;;;;11.04;62.29;100452.34;4254902;33;33847;-83
2022/12/27 05:44:32;;;;;;;1.00;1.00;;;;;;;11.02;62.31;100455.06;4254500;33;33274;-85
2022/12/27 05:47:00;;;;;;;0.00;0.00;;;;;;;11.15;61.60;100454.63;4265549;33;33685;-84
2022/12/27 05:49:28;;;;;;;0.40;0.40;;;;;;;11.19;61.57;100456.22;4256056;33;34266;-84
2022/12/27 05:51:56;;;;;;;0.20;0.20;;;;;;;11.12;61.27;100463.53;4256133;33;33947;-84
2022/12/27 05:54:23;;;;;;;0.68;0.68;;;;;;;11.13;61.78;100459.09;4257134;33;34557;-84
2022/12/27 05:56:51;;;;;;;0.37;0.37;;;;;;;11.33;60.82;100458.38;4254775;33;34199;-84
2022/12/27 05:59:19;;;;;;;2.47;0.80;;;;;;;11.19;61.36;100482.66;4253496;33;33883;-84
2022/12/27 06:01:46;;;;;;;0.50;0.50;;;;;;;11.25;60.98;100493.00;4251984;33;34884;-83
2022/12/27 06:04:15;;;;;;;0.75;0.57;;;;;;;11.44;60.29;100480.91;4254113;33;32963;-83
2022/12/27 06:06:42;;;;;;;0.45;0.45;;;;;;;11.36;60.53;100488.22;4255172;33;31863;-83
2022/12/27 06:09:10;;;;;;;2.20;0.62;;;;;;;11.18;61.05;100492.38;4254216;33;32879;-83
2022/12/27 06:11:38;;;;;;;0.35;0.35;;;;;;;11.39;60.23;100500.47;4267591;33;32282;-84
2022/12/27 06:14:05;;;;;;;0.50;0.50;;;;;;;11.51;59.86;100500.88;4255797;33;34449;-83
2022/12/27 06:16:33;;;;;;;0.50;0.45;;;;;;;11.38;60.06;100502.25;4252767;33;34297;-83
2022/12/27 06:19:01;;;;;;;5.28;0.95;;;;;;;11.19;60.60;100511.75;4265755;33;33054;-83
2022/12/27 06:21:29;;;;;;;0.20;0.20;;;;;;;11.31;60.28;100505.19;4261080;33;34655;-83
2022/12/27 06:23:56;;;;;;;1.05;0.98;;;;;;;11.53;59.42;100496.41;4254330;33;33457;-83
2022/12/27 06:26:26;;;;;;;1.27;0.95;;;;;;;10.97;60.86;100512.50;4254472;33;31839;-83
2022/12/27 06:28:55;;;;;;;0.10;0.10;;;;;;;10.98;61.01;100524.78;4255413;33;32854;-84
2022/12/27 06:31:24;;;;;;;0.37;0.37;;;;;;;10.98;60.87;100527.44;4253173;33;34436;-84
2022/12/27 06:33:52;;;;;;;0.52;0.52;;;;;;;11.27;59.81;100528.22;4252492;33;34549;-84
2022/12/27 06:36:22;;;;;;;0.08;0.08;;;;;;;11.02;60.12;100529.06;4243215;33;33614;-84
2022/12/27 06:38:50;;;;;;;0.00;0.00;;;;;;;11.21;59.86;100534.59;4252978;33;33395;-84
2022/12/27 06:41:18;;;;;;;0.03;0.03;;;;;;;11.53;58.38;100545.78;4246137;33;33872;-84
2022/12/27 06:43:46;;;;;;;0.00;0.00;;;;;;;11.38;58.86;100541.91;4246910;33;34198;-84
2022/12/27 06:46:16;;;;;;;0.73;0.73;;;;;;;11.58;58.22;100550.91;4253734;33;33979;-83
2022/12/27 06:48:46;;;;;;;0.03;0.03;;;;;;;11.24;59.05;100560.03;4252209;33;32538;-84
2022/12/27 06:51:15;;;;;;;0.22;0.22;;;;;;;10.90;59.71;100561.16;4254542;33;33924;-83
2022/12/27 06:53:48;;;;;;;0.00;0.00;;;;;;;11.42;58.47;100558.53;4255752;33;32736;-83
2022/12/27 06:56:18;;;;;;;0.70;0.57;;;;;;;11.18;58.83;100560.25;4253415;33;33525;-83
2022/12/27 06:58:47;;;;;;;0.70;0.52;;;;;;;11.17;59.13;100559.37;4241475;33;33880;-83
2022/12/27 07:01:23;;;;;;;0.15;0.15;;;;;;;11.35;58.30;100563.19;4254169;33;33638;-83
2022/12/27 07:03:53;;;;;;;0.52;0.52;;;;;;;10.82;59.83;100579.03;4251726;33;34051;-84
2022/12/27 07:06:22;;;;;;;0.00;0.00;;;;;;;11.00;59.48;100573.16;4252089;33;32951;-84
2022/12/27 07:08:51;;;;;;;0.10;0.10;;;;;;;11.27;58.64;100570.50;4254959;33;33944;-84
2022/12/27 07:11:19;;;;;;;0.25;0.25;;;;;;;11.48;57.91;100566.25;4252409;33;34764;-85
2022/12/27 07:13:49;;;;;;;0.37;0.37;;;;;;;11.26;58.28;100568.78;4253785;33;33689;-84
2022/12/27 07:16:20;;;;;;;0.80;0.45;;;;;;;11.12;58.93;100576.31;4254851;33;33965;-84
2022/12/27 07:18:48;;;;;;;0.00;0.00;;;;;;;11.03;58.96;100572.19;4256194;33;32965;-83
2022/12/27 07:21:19;;;;;;;0.32;0.32;;;;;;;10.98;58.92;100571.50;4253488;33;34241;-84
2022/12/27 07:23:48;;;;;;;0.30;0.30;;;;;;;11.06;58.69;100573.88;4254284;33;32994;-84
2022/12/27 07:26:21;;;;;;;1.27;0.65;;;;;;;11.20;58.37;100567.22;4254050;33;33561;-84
2022/12/27 07:28:52;;;;;;;0.00;0.00;;;;;;;10.94;58.34;100569.88;4255918;33;34008;-84
2022/12/27 07:31:22;;;;;;;0.00;0.00;;;;;;;11.26;57.57;100571.44;4253597;33;32718;-83
2022/12/27 07:33:51;;;;;;;0.22;0.22;;;;;;;10.83;59.26;100575.50;4251209;33;33654;-84
2022/12/27 07:36:21;;;;;;;0.22;0.22;;;;;;;10.88;58.18;100575.34;4253259;33;33562;-83
2022/12/27 07:38:49;;;;;;;0.20;0.20;;;;;;;11.12;56.99;100565.75;4265645;33;33897;-84
2022/12/27 07:41:17;;;;;;;0.22;0.22;;;;;;;11.08;57.67;100582.63;4240465;33;33726;-84
2022/12/27 07:43:45;;;;;;;0.10;0.10;;;;;;;10.93;58.37;100591.91;4267641;33;34592;-84
2022/12/27 07:46:15;;;;;;;0.00;0.00;;;;;;;11.21;57.03;100595.38;4249542;33;33011;-83
2022/12/27 07:48:43;;;;;;;0.00;0.00;;;;;;;11.27;57.06;100597.81;4255272;33;33060;-84
2022/12/27 07:51:11;;;;;;;0.00;0.00;;;;;;;11.00;56.74;100599.56;4254026;33;33570;-84
2022/12/27 07:53:39;;;;;;;0.28;0.28;;;;;;;10.82;57.68;100607.22;4254075;33;32234;-83
2022/12/27 07:56:08;;;;;;;0.00;0.00;;;;;;;11.14;56.86;100627.34;4266704;33;34656;-83
2022/12/27 07:58:45;;;;;;;0.00;0.00;;;;;;;11.35;56.33;100631.94;4263369;33;34530;-84
2022/12/27 08:01:14;;;;;;;0.00;0.00;;;;;;;11.23;56.18;100637.63;4239090;33;34217;-86
2022/12/27 08:03:42;;;;;;;0.00;0.00;;;;;;;11.49;55.60;100645.56;4260688;33;34767;-86
2022/12/27 08:06:29;;;;;;;1.45;0.47;;;;;;;11.33;55.16;100654.03;4251084;33;33332;-85
2022/12/27 08:08:58;;;;;;;0.05;0.05;;;;;;;11.55;55.17;100641.81;4257206;33;32940;-84
2022/12/27 08:11:26;;;;;;;0.25;0.25;;;;;;;11.56;54.35;100653.28;4255715;33;33931;-85
2022/12/27 08:13:53;;;;;;;0.00;0.00;;;;;;;11.61;54.17;100657.47;4249532;33;33997;-84
2022/12/27 08:16:23;;;;;;;0.00;0.00;;;;;;;11.55;54.36;100660.34;4243405;33;32486;-85
2022/12/27 08:18:54;;;;;;;0.47;0.17;;;;;;;11.26;54.42;100663.97;4256481;33;34713;-85
2022/12/27 08:21:22;;;;;;;0.10;0.10;;;;;;;11.51;54.19;100664.88;4253432;33;34855;-84
2022/12/27 08:23:50;;;;;;;0.20;0.13;;;;;;;11.24;55.47;100666.63;4249578;33;34098;-84
2022/12/27 08:26:17;;;;;;;0.10;0.10;;;;;;;11.44;54.51;100662.47;4247362;33;33483;-84
2022/12/27 08:28:45;;;;;;;0.00;0.00;;;;;;;11.41;54.83;100674.03;4258224;33;32243;-85
2022/12/27 08:31:13;;;;;;;0.00;0.00;;;;;;;11.37;55.28;100669.75;4256643;33;32449;-85
2022/12/27 08:33:41;;;;;;;0.08;0.08;;;;;;;11.53;54.51;100683.31;4250281;33;35020;-85
2022/12/27 08:36:11;;;;;;;0.00;0.00;;;;;;;11.57;54.40;100681.44;4238853;33;33277;-84
2022/12/27 08:38:58;;;;;;;0.00;0.00;;;;;;;11.51;54.54;100675.44;4253719;33;32495;-84
2022/12/27 08:41:26;;;;;;;0.00;0.00;;;;;;;11.41;54.84;100703.12;4252961;33;32980;-84
2022/12/27 08:43:54;;;;;;;0.17;0.17;;;;;;;11.29;55.50;100711.44;4244400;33;34032;-84
2022/12/27 08:46:22;;;;;;;0.00;0.00;;;;;;;11.53;54.99;100705.34;4246629;33;34110;-85
2022/12/27 08:48:50;;;;;;;0.00;0.00;;;;;;;11.89;53.27;100702.41;4252568;33;33524;-85
2022/12/27 08:51:18;;;;;;;0.00;0.00;;;;;;;12.00;53.12;100708.19;4264955;33;33785;-85
2022/12/27 08:53:58;;;;;;;0.00;0.00;;;;;;;11.60;52.89;100711.31;4266857;33;34803;-85
2022/12/27 08:56:25;;;;;;;0.00;0.00;;;;;;;11.72;53.02;100710.00;4249564;33;33702;-84
2022/12/27 08:58:53;;;;;;;0.00;0.00;;;;;;;11.70;52.22;100715.37;4257995;33;32569;-84
2022/12/27 09:01:21;;;;;;;0.00;0.00;;;;;;;11.65;50.75;100713.81;4261447;33;34695;-84
2022/12/27 09:03:49;;;;;;;0.00;0.00;;;;;;;11.77;50.75;100719.56;4267198;33;34573;-86
2022/12/27 09:06:18;;;;;;;0.00;0.00;;;;;;;11.44;52.30;100721.53;4269701;33;33624;-84
2022/12/27 09:08:48;;;;;;;0.15;0.15;;;;;;;11.57;49.81;100721.13;4253369;33;34203;-85
2022/12/27 09:11:18;;;;;;;4.47;0.55;;;;;;;11.41;50.70;100726.06;4257772;33;32949;-84
2022/12/27 09:13:45;;;;;;;0.00;0.00;;;;;;;11.32;50.94;100715.78;4268001;33;33871;-83
2022/12/27 09:16:15;;;;;;;0.00;0.00;;;;;;;11.24;49.96;100721.28;4255264;33;33734;-84
2022/12/27 09:18:46;;;;;;;0.00;0.00;;;;;;;11.35;50.64;100727.12;4253286;33;32100;-83
2022/12/27 09:21:18;;;;;;;0.00;0.00;;;;;;;11.41;49.64;100726.06;4256883;33;32699;-84
2022/12/27 09:23:47;;;;;;;0.00;0.00;;;;;;;11.47;48.63;100731.13;4255774;33;32736;-84
2022/12/27 09:26:17;;;;;;;0.00;0.00;;;;;;;11.65;47.66;100734.97;4255862;33;33882;-84
2022/12/27 09:28:45;;;;;;;0.10;0.10;;;;;;;11.11;49.06;100731.41;4255817;33;34361;-84
2022/12/27 09:31:13;;;;;;;0.00;0.00;;;;;;;11.28;48.31;100731.72;4265921;33;34696;-84
2022/12/27 09:33:42;;;;;;;0.28;0.08;;;;;;;11.60;46.20;100742.19;4257113;33;34448;-84
2022/12/27 09:36:15;;;;;;;0.95;0.20;;;;;;;10.91;47.27;100741.69;4253271;33;32197;-84
2022/12/27 09:38:43;;;;;;;0.00;0.00;;;;;;;11.18;44.89;100737.34;4255755;33;32654;-85
2022/12/27 09:41:19;;;;;;;0.00;0.00;;;;;;;11.42;44.29;100747.16;4254657;33;32691;-86
2022/12/27 09:44:31;;;;;;;0.00;0.00;;;;;;;11.16;44.12;100748.00;4255584;33;34505;-85
2022/12/27 09:47:09;;;;;;;0.00;0.00;;;;;;;11.04;43.53;100748.34;4265512;33;33215;-85
2022/12/27 09:49:42;;;;;;;0.00;0.00;;;;;;;11.13;43.59;100752.50;4254261;33;33685;-87
2022/12/27 09:52:36;;;;;;;0.00;0.00;;;;;;;11.53;43.41;100749.44;4255342;33;32818;-87
2022/12/27 09:55:20;;;;;;;0.00;0.00;;;;;;;11.28;44.62;100759.94;4268094;33;33025;-85
2022/12/27 09:57:49;;;;;;;0.00;0.00;;;;;;;11.28;42.00;100754.66;4254456;33;33653;-84
2022/12/27 10:00:20;;;;;;;0.00;0.00;;;;;;;11.06;41.43;100774.72;4265763;33;33893;-84
2022/12/27 10:03:05;;;;;;;0.00;0.00;;;;;;;11.34;39.93;100766.81;4261531;33;34203;-85
2022/12/27 10:05:35;;;;;;;0.00;0.00;;;;;;;10.73;41.64;100743.13;4252459;33;33376;-84
2022/12/27 10:08:18;;;;;;;0.00;0.00;;;;;;;10.70;40.84;100777.56;4248051;33;33260;-85
2022/12/27 10:11:01;;;;;;;0.00;0.00;;;;;;;10.37;41.44;100780.22;4267335;33;34392;-83
2022/12/27 10:13:48;;;;;;;0.00;0.00;;;;;;;10.30;41.23;100776.00;4266726;33;33472;-84
2022/12/27 10:16:29;;;;;;;0.00;0.00;;;;;;;10.27;42.33;100781.38;4265840;33;34586;-83
2022/12/27 10:19:32;;;;;;;0.00;0.00;;;;;;;10.49;41.71;100795.75;4266930;33;34296;-83
2022/12/27 10:22:31;;;;;;;0.00;0.00;;;;;;;10.13;42.52;100807.25;4254092;33;34720;-84
2022/12/27 10:25:03;;;;;;;0.00;0.00;;;;;;;9.98;42.69;100801.44;4262742;33;33007;-85
2022/12/27 10:27:30;;;;;;;0.30;0.30;;;;;;;10.42;41.75;100793.28;4253288;33;34080;-88
2022/12/27 10:29:59;;;;;;;0.00;0.00;;;;;;;9.91;44.41;100796.34;4253607;33;33988;-85
2022/12/27 10:32:26;;;;;;;0.00;0.00;;;;;;;10.15;43.91;100810.69;4253579;33;32678;-85
2022/12/27 10:35:00;;;;;;;0.00;0.00;;;;;;;10.56;44.02;100792.91;4267299;33;33967;-85
2022/12/27 10:37:29;;;;;;;0.00;0.00;;;;;;;10.92;42.52;100790.97;4245491;33;33930;-85
2022/12/27 10:40:14;;;;;;;0.00;0.00;;;;;;;10.95;43.07;100786.47;4254490;33;34335;-88
2022/12/27 10:42:51;;;;;;;0.22;0.22;;;;;;;10.39;44.75;100794.22;4251485;33;32134;-84
2022/12/27 10:45:28;;;;;;;0.00;0.00;;;;;;;10.79;44.47;100792.28;4251853;33;33028;-84
2022/12/27 10:47:58;;;;;;;0.00;0.00;;;;;;;11.01;43.44;100778.41;4267452;33;33584;-84
2022/12/27 10:50:27;;;;;;;0.00;0.00;;;;;;;11.09;42.88;100772.00;4264468;33;33185;-84
2022/12/27 10:52:56;;;;;;;0.00;0.00;;;;;;;10.80;44.28;100786.94;4253499;33;33548;-84
2022/12/27 10:55:34;;;;;;;39.28;1.17;;;;;;;10.65;44.95;100790.03;4254093;33;32480;-83
2022/12/27 10:58:20;;;;;;;0.00;0.00;;;;;;;10.73;45.29;100786.25;4264783;33;33593;-84
2022/12/27 11:00:55;;;;;;;0.10;0.10;;;;;;;10.94;44.52;100789.19;4253327;33;33653;-84
2022/12/27 11:03:25;;;;;;;0.00;0.00;;;;;;;10.88;43.47;100795.53;4254163;33;32979;-84
2022/12/27 11:06:04;;;;;;;0.00;0.00;;;;;;;10.89;43.18;100791.97;4251238;33;32622;-84
2022/12/27 11:08:31;;;;;;;0.00;0.00;;;;;;;10.89;41.32;100802.53;4253944;33;33784;-84
2022/12/27 11:11:12;;;;;;;0.00;0.00;;;;;;;10.93;41.67;100809.47;4247648;33;33371;-84
2022/12/27 11:13:41;;;;;;;0.00;0.00;;;;;;;10.63;43.29;100818.25;4252443;33;33926;-83
2022/12/27 11:16:28;;;;;;;0.00;0.00;;;;;;;11.07;41.92;100803.78;4253592;33;33860;-84
2022/12/27 11:18:58;;;;;;;0.00;0.00;;;;;;;11.07;42.68;100789.69;4266945;33;34157;-84
2022/12/27 11:21:27;;;;;;;0.13;0.13;;;;;;;11.34;42.30;100793.25;4267136;33;33631;-87
2022/12/27 11:24:00;;;;;;;0.10;0.10;;;;;;;10.80;44.78;100800.16;4254115;33;34066;-84
2022/12/27 11:26:48;;;;;;;1.02;0.32;;;;;;;11.30;44.80;100805.72;4265309;33;32771;-88
2022/12/27 11:29:23;;;;;;;0.00;0.00;;;;;;;11.71;43.63;100814.13;4244504;33;33344;-86
2022/12/27 11:31:51;;;;;;;0.00;0.00;;;;;;;11.36;44.53;100808.19;4250239;33;32425;-86
2022/12/27 11:34:33;;;;;;;0.20;0.20;;;;;;;11.07;45.20;100800.28;4251989;33;33739;-89
2022/12/27 11:37:06;;;;;;;0.05;0.05;;;;;;;11.14;44.93;100801.78;4255021;33;34122;-88
2022/12/27 11:39:40;;;;;;;0.03;0.03;;;;;;;10.92;44.98;100796.28;4254923;33;33110;-85
2022/12/27 11:42:17;;;;;;;0.45;0.45;;;;;;;10.97;45.34;100803.19;4264390;33;34244;-85
2022/12/27 11:44:52;;;;;;;0.00;0.00;;;;;;;10.76;45.54;100812.56;4263652;33;33307;-85
2022/12/27 11:48:00;;;;;;;0.20;0.20;;;;;;;10.57;46.75;100832.47;4253114;33;33037;-84
2022/12/27 11:51:04;;;;;;;0.57;0.32;;;;;;;10.79;43.96;100809.00;4241900;33;34005;-85
2022/12/27 11:53:47;;;;;;;0.93;0.47;;;;;;;10.27;42.17;100825.41;4233521;33;33160;-85
2022/12/27 11:56:34;;;;;;;0.00;0.00;;;;;;;9.82;42.42;100830.88;4257954;33;32724;-85
2022/12/27 11:59:24;;;;;;;0.00;0.00;;;;;;;9.95;42.34;100832.31;4264932;33;33340;-85
2022/12/27 12:02:16;;;;;;;0.00;0.00;;;;;;;10.00;42.80;100826.00;4263244;33;34768;-85
2022/12/27 12:05:26;;;;;;;0.00;0.00;;;;;;;9.98;42.44;100812.00;4264598;33;33303;-85
2022/12/27 12:08:08;;;;;;;0.00;0.00;;;;;;;10.06;43.29;100810.91;4231835;33;32561;-85
2022/12/27 12:10:52;;;;;;;0.00;0.00;;;;;;;9.69;43.91;100819.75;4218767;33;34092;-84
2022/12/27 12:13:53;;;;;;;0.00;0.00;;;;;;;9.71;43.36;100817.94;4246129;33;32790;-85
2022/12/27 12:16:43;;;;;;;0.10;0.10;;;;;;;9.72;41.29;100814.41;4251578;33;32321;-85
2022/12/27 12:19:20;;;;;;;0.00;0.00;;;;;;;9.56;42.97;100819.19;4268006;33;33755;-84
2022/12/27 12:21:48;;;;;;;0.10;0.10;;;;;;;9.59;41.44;100810.31;4252542;33;33373;-85
2022/12/27 12:24:42;;;;;;;0.00;0.00;;;;;;;9.75;41.53;100819.59;4266013;33;34777;-85
2022/12/27 12:27:32;;;;;;;0.80;0.37;;;;;;;9.56;40.76;100806.00;4262517;33;33887;-85
2022/12/27 12:30:02;;;;;;;0.00;0.00;;;;;;;9.31;42.12;100815.38;4248935;33;33206;-85
2022/12/27 12:32:32;;;;;;;0.00;0.00;;;;;;;9.20;42.38;100802.41;4249584;33;33925;-85
2022/12/27 12:35:18;;;;;;;0.00;0.00;;;;;;;9.46;40.74;100791.28;4251282;33;33115;-85
2022/12/27 12:38:12;;;;;;;0.00;0.00;;;;;;;9.27;41.27;100796.13;4257793;33;33097;-85
2022/12/27 12:41:15;;;;;;;0.00;0.00;;;;;;;9.18;41.29;100830.56;4263108;33;33902;-85
2022/12/27 12:44:14;;;;;;;0.45;0.40;;;;;;;9.08;41.23;100818.50;4262023;33;33948;-84
2022/12/27 12:46:59;;;;;;;0.00;0.00;;;;;;;9.12;41.54;100828.94;4264123;33;34751;-84
2022/12/27 12:49:49;;;;;;;0.00;0.00;;;;;;;8.88;41.77;100829.47;4264668;33;33708;-85
2022/12/27 12:52:35;;;;;;;0.00;0.00;;;;;;;9.18;41.00;100838.47;4264913;33;33826;-84
2022/12/27 12:55:26;;;;;;;0.00;0.00;;;;;;;9.07;40.70;100832.56;4251821;33;32865;-84
2022/12/27 12:58:18;;;;;;;0.47;0.47;;;;;;;9.04;42.11;100848.44;4250925;33;33223;-85
2022/12/27 13:01:40;;;;;;;0.08;0.08;;;;;;;8.94;41.53;100835.47;4252515;33;32862;-84
2022/12/27 13:04:50;;;;;;;0.00;0.00;;;;;;;9.03;41.82;100859.88;4252305;33;33827;-84
2022/12/27 13:07:30;;;;;;;0.15;0.15;;;;;;;8.91;41.27;100851.31;4269070;33;34120;-84
2022/12/27 13:10:08;;;;;;;1.37;0.85;;;;;;;9.01;41.00;100859.03;4254737;33;34613;-84
2022/12/27 13:12:58;;;;;;;0.15;0.15;;;;;;;8.78;41.15;100862.12;4256249;33;32500;-84
2022/12/27 13:15:52;;;;;;;0.10;0.10;;;;;;;8.72;41.82;100876.28;4261837;33;34738;-86
2022/12/27 13:18:56;;;;;;;0.10;0.10;;;;;;;8.71;41.62;100864.88;4254302;33;33924;-83
2022/12/27 13:21:48;;;;;;;0.00;0.00;;;;;;;8.77;41.03;100857.75;4263820;33;34682;-83
2022/12/27 13:24:19;;;;;;;;;;;;;;;8.77;41.22;100857.75;4262801;33;34287;-84
2022/12/27 13:27:06;;;;;;;0.00;0.00;;;;;;;8.22;42.73;100872.78;4267185;33;33146;-84
2022/12/27 13:30:11;;;;;;;0.00;0.00;;;;;;;8.68;41.10;100879.84;4255511;33;32556;-83
2022/12/27 13:32:49;;;;;;;0.00;0.00;;;;;;;8.53;41.44;100880.16;4263826;33;34076;-84
2022/12/27 13:35:43;;;;;;;0.00;0.00;;;;;;;8.70;41.37;100902.66;4254140;33;32015;-84
2022/12/27 13:38:21;;;;;;;0.00;0.00;;;;;;;8.61;41.67;100894.06;4253751;33;32486;-84
2022/12/27 13:41:08;;;;;;;0.30;0.30;;;;;;;8.79;41.92;100891.06;4242186;33;33756;-84
2022/12/27 13:44:00;;;;;;;0.08;0.08;;;;;;;8.41;42.84;100902.31;4266088;33;34876;-84
2022/12/27 13:47:02;;;;;;;0.00;0.00;;;;;;;9.07;40.84;100906.31;4267480;33;33909;-84